createdAt,value
2018-12-20T00:02:28.309Z,70.65
2018-12-20T00:05:00.083Z,70.61
2018-12-20T00:07:31.715Z,70.61
2018-12-20T00:10:04.056Z,70.94
2018-12-20T00:12:35.805Z,70.55
2018-12-20T00:15:07.897Z,71.17
2018-12-20T00:17:44.282Z,71.74
2018-12-20T00:20:15.855Z,71.55
2018-12-20T00:22:48.085Z,71.26
2018-12-20T00:25:20.233Z,70.81
2018-12-20T00:27:52.956Z,71.24
2018-12-20T00:30:24.582Z,71.16
2018-12-20T00:32:56.258Z,71.14
2018-12-20T00:35:28.281Z,70.97
2018-12-20T00:37:59.864Z,71.23
2018-12-20T00:40:31.683Z,71.46
2018-12-20T00:43:03.450Z,71.34
2018-12-20T00:45:36.068Z,70.68
2018-12-20T00:48:09.194Z,71.24
2018-12-20T00:50:41.028Z,70.86
2018-12-20T00:53:12.967Z,71.65
2018-12-20T00:55:44.857Z,71.90
2018-12-20T00:58:16.642Z,72.16
2018-12-20T01:00:48.415Z,71.82
2018-12-20T01:03:20.291Z,71.51
2018-12-20T01:05:52.010Z,71.21
2018-12-20T01:08:23.798Z,70.89
2018-12-20T01:10:55.747Z,71.71
2018-12-20T01:13:27.990Z,71.79
2018-12-20T01:16:00.190Z,71.50
2018-12-20T01:18:31.700Z,71.76
2018-12-20T01:21:03.789Z,71.58
2018-12-20T01:23:36.082Z,71.15
2018-12-20T01:26:08.403Z,71.26
2018-12-20T01:28:39.976Z,71.34
2018-12-20T01:31:12.021Z,71.50
2018-12-20T01:36:14.350Z,71.66
2018-12-20T01:38:46.382Z,71.43
2018-12-20T01:41:18.431Z,71.62
2018-12-20T01:43:50.451Z,72.21
2018-12-20T01:46:23.342Z,71.99
2018-12-20T01:48:55.653Z,71.71
2018-12-20T01:51:27.603Z,71.50
2018-12-20T01:53:59.474Z,71.52
2018-12-20T01:56:31.218Z,72.06
2018-12-20T01:59:03.394Z,72.12
2018-12-20T02:01:35.145Z,71.99
2018-12-20T02:04:07.233Z,72.39
2018-12-20T02:06:39.702Z,71.52
2018-12-20T02:09:11.668Z,71.33
2018-12-20T02:11:43.944Z,71.81
2018-12-20T02:14:15.622Z,71.30
2018-12-20T02:16:47.872Z,72.36
2018-12-20T02:19:19.735Z,72.32
2018-12-20T02:21:52.057Z,71.94
2018-12-20T02:24:24.187Z,71.69
2018-12-20T02:26:56.303Z,72.08
2018-12-20T02:29:43.595Z,71.96
2018-12-20T02:32:15.925Z,71.77
2018-12-20T02:34:47.524Z,71.75
2018-12-20T02:37:19.209Z,71.66
2018-12-20T02:39:51.408Z,71.46
2018-12-20T02:42:23.599Z,71.00
2018-12-20T02:44:56.126Z,71.53
2018-12-20T02:47:30.929Z,71.55
2018-12-20T02:50:02.462Z,71.75
2018-12-20T02:52:34.784Z,71.85
2018-12-20T02:55:06.462Z,70.98
2018-12-20T02:57:38.038Z,71.13
2018-12-20T03:00:09.890Z,71.62
2018-12-20T03:02:41.995Z,71.11
2018-12-20T03:05:13.442Z,71.25
2018-12-20T03:07:45.102Z,70.92
2018-12-20T03:10:16.709Z,70.66
2018-12-20T03:12:48.652Z,70.52
2018-12-20T03:15:20.596Z,70.13
2018-12-20T03:17:52.785Z,70.00
2018-12-20T03:20:24.911Z,69.55
2018-12-20T03:22:56.665Z,69.40
2018-12-20T03:25:28.727Z,69.12
2018-12-20T03:28:00.557Z,68.98
2018-12-20T03:30:32.052Z,68.94
2018-12-20T03:33:03.620Z,68.39
2018-12-20T03:35:35.442Z,68.63
2018-12-20T03:38:07.202Z,68.64
2018-12-20T03:40:38.677Z,68.23
2018-12-20T03:43:10.274Z,67.94
2018-12-20T03:45:41.829Z,67.86
2018-12-20T03:48:14.023Z,67.45
2018-12-20T03:50:45.733Z,67.74
2018-12-20T03:53:18.435Z,67.55
2018-12-20T03:55:50.492Z,66.97
2018-12-20T03:58:22.155Z,67.66
2018-12-20T04:00:53.839Z,66.58
2018-12-20T04:03:26.162Z,67.19
2018-12-20T04:06:02.567Z,67.57
2018-12-20T04:08:37.322Z,66.86
2018-12-20T04:11:08.806Z,67.25
2018-12-20T04:13:40.521Z,67.62
2018-12-20T04:16:12.810Z,67.01
2018-12-20T04:18:44.876Z,66.42
2018-12-20T04:21:17.143Z,67.02
2018-12-20T04:23:49.044Z,66.84
2018-12-20T04:26:20.546Z,67.41
2018-12-20T04:28:57.245Z,63.37
2018-12-20T04:31:29.469Z,62.41
2018-12-20T04:34:01.107Z,63.51
2018-12-20T04:36:32.895Z,65.54
2018-12-20T04:39:05.494Z,65.41
2018-12-20T04:41:37.489Z,62.37
2018-12-20T04:44:11.852Z,62.86
2018-12-20T04:46:43.933Z,63.30
2018-12-20T04:49:16.133Z,63.89
2018-12-20T04:51:47.845Z,63.90
2018-12-20T04:54:19.660Z,64.62
2018-12-20T04:56:51.206Z,63.26
2018-12-20T04:59:23.103Z,63.24
2018-12-20T05:01:54.869Z,62.87
2018-12-20T05:04:26.687Z,62.57
2018-12-20T05:06:58.553Z,63.36
2018-12-20T05:09:29.980Z,63.19
2018-12-20T05:12:01.580Z,63.85
2018-12-20T05:14:33.724Z,64.09
2018-12-20T05:17:05.995Z,63.77
2018-12-20T05:19:38.215Z,64.48
2018-12-20T05:22:10.320Z,64.87
2018-12-20T05:24:42.057Z,64.39
2018-12-20T05:27:13.604Z,64.22
2018-12-20T05:29:45.533Z,64.28
2018-12-20T05:32:17.294Z,63.69
2018-12-20T05:34:48.993Z,64.07
2018-12-20T05:37:21.104Z,61.13
2018-12-20T05:39:57.917Z,60.04
2018-12-20T05:42:29.866Z,58.83
2018-12-20T05:45:01.742Z,57.38
2018-12-20T05:47:33.845Z,59.83
2018-12-20T05:50:06.246Z,59.27
2018-12-20T05:52:37.750Z,60.98
2018-12-20T05:55:09.618Z,62.65
2018-12-20T05:57:41.912Z,62.67
2018-12-20T06:00:14.186Z,62.41
2018-12-20T06:02:46.498Z,62.51
2018-12-20T06:05:18.386Z,59.99
2018-12-20T06:07:50.592Z,62.56
2018-12-20T06:10:22.200Z,62.25
2018-12-20T06:12:54.113Z,59.75
2018-12-20T06:15:26.129Z,57.79
2018-12-20T06:17:57.683Z,60.36
2018-12-20T06:20:29.987Z,56.34
2018-12-20T06:23:02.224Z,57.31
2018-12-20T06:25:33.995Z,58.76
2018-12-20T06:28:06.270Z,58.50
2018-12-20T06:30:37.923Z,55.38
2018-12-20T06:33:10.179Z,55.19
2018-12-20T06:35:42.270Z,54.94
2018-12-20T06:38:13.849Z,54.66
2018-12-20T06:40:45.659Z,56.46
2018-12-20T06:43:17.360Z,56.02
2018-12-20T06:45:48.973Z,54.73
2018-12-20T06:48:20.857Z,55.75
2018-12-20T06:50:53.571Z,53.54
2018-12-20T06:53:25.441Z,55.04
2018-12-20T06:55:57.275Z,52.72
2018-12-20T06:58:30.408Z,51.15
2018-12-20T07:01:03.660Z,49.91
2018-12-20T07:03:35.799Z,51.66
2018-12-20T07:06:08.753Z,52.11
2018-12-20T07:08:40.530Z,52.48
2018-12-20T07:11:12.887Z,52.57
2018-12-20T07:13:44.600Z,53.22
2018-12-20T07:16:16.312Z,53.23
2018-12-20T07:18:47.887Z,54.78
2018-12-20T07:21:20.418Z,54.68
2018-12-20T07:23:52.009Z,55.07
2018-12-20T07:26:24.135Z,54.22
2018-12-20T07:28:56.080Z,52.48
2018-12-20T07:31:29.049Z,53.50
2018-12-20T07:34:00.820Z,54.26
2018-12-20T07:36:32.278Z,53.96
2018-12-20T07:39:03.663Z,54.61
2018-12-20T07:41:35.194Z,56.20
2018-12-20T07:44:06.834Z,54.90
2018-12-20T07:46:38.492Z,55.07
2018-12-20T07:49:09.846Z,54.70
2018-12-20T07:51:42.315Z,53.15
2018-12-20T07:54:13.783Z,51.97
2018-12-20T07:56:45.808Z,52.78
2018-12-20T07:59:23.489Z,51.21
2018-12-20T08:01:50.962Z,52.47
2018-12-20T08:04:22.435Z,53.16
2018-12-20T08:06:54.265Z,51.11
2018-12-20T08:09:25.884Z,51.56
2018-12-20T08:11:57.792Z,53.30
2018-12-20T08:14:29.265Z,53.82
2018-12-20T08:17:00.910Z,53.61
2018-12-20T08:19:36.172Z,54.18
2018-12-20T08:22:09.853Z,53.97
2018-12-20T08:24:41.523Z,53.87
2018-12-20T08:27:13.876Z,52.03
2018-12-20T08:29:47.269Z,51.81
2018-12-20T08:32:19.051Z,51.91
2018-12-20T08:34:50.470Z,52.66
2018-12-20T08:37:21.935Z,52.06
2018-12-20T08:39:53.509Z,51.46
2018-12-20T08:42:25.286Z,53.09
2018-12-20T08:44:57.407Z,49.83
2018-12-20T08:47:29.228Z,50.17
2018-12-20T08:50:01.015Z,48.00
2018-12-20T08:52:34.010Z,51.08
2018-12-20T08:55:06.176Z,49.64
2018-12-20T08:57:37.896Z,48.53
2018-12-20T09:00:10.284Z,47.17
2018-12-20T09:02:42.040Z,44.26
2018-12-20T09:08:18.548Z,48.81
2018-12-20T09:10:50.723Z,41.88
2018-12-20T09:13:22.480Z,40.46
2018-12-20T09:15:54.141Z,41.28
2018-12-20T09:18:25.995Z,41.40
2018-12-20T09:21:01.078Z,43.67
2018-12-20T09:23:34.155Z,45.62
2018-12-20T09:26:05.665Z,47.19
2018-12-20T09:28:37.265Z,47.62
2018-12-20T09:31:09.377Z,46.80
2018-12-20T09:33:41.543Z,48.06
2018-12-20T09:36:13.214Z,47.24
2018-12-20T09:38:45.075Z,47.94
2018-12-20T09:41:17.225Z,46.63
2018-12-20T09:43:48.775Z,48.16
2018-12-20T09:46:20.309Z,49.08
2018-12-20T09:48:51.937Z,50.61
2018-12-20T09:51:23.411Z,48.25
2018-12-20T09:53:55.903Z,49.42
2018-12-20T09:56:27.286Z,50.25
2018-12-20T09:58:59.110Z,49.09
2018-12-20T10:01:30.975Z,48.64
2018-12-20T10:04:03.393Z,45.86
2018-12-20T10:06:35.038Z,48.71
2018-12-20T10:09:09.078Z,47.59
2018-12-20T10:11:40.684Z,48.12
2018-12-20T10:14:12.538Z,45.75
2018-12-20T10:16:44.173Z,46.92
2018-12-20T10:19:26.682Z,45.99
2018-12-20T10:21:59.083Z,48.97
2018-12-20T10:24:31.108Z,45.78
2018-12-20T10:27:03.286Z,47.20
2018-12-20T10:29:35.660Z,49.46
2018-12-20T10:32:07.302Z,46.49
2018-12-20T10:34:39.250Z,47.53
2018-12-20T10:37:11.543Z,47.02
2018-12-20T10:39:43.714Z,45.92
2018-12-20T10:42:15.239Z,45.93
2018-12-20T10:44:46.821Z,46.15
2018-12-20T10:47:29.227Z,46.34
2018-12-20T10:49:59.823Z,46.71
2018-12-20T10:52:31.016Z,49.42
2018-12-20T10:55:03.602Z,48.83
2018-12-20T10:57:35.362Z,48.12
2018-12-20T11:00:07.714Z,47.51
2018-12-20T11:02:44.061Z,48.47
2018-12-20T11:05:21.144Z,48.15
2018-12-20T11:07:57.516Z,49.12
2018-12-20T11:10:29.896Z,50.20
2018-12-20T11:13:05.834Z,50.55
2018-12-20T11:15:37.476Z,50.07
2018-12-20T11:18:14.594Z,49.62
2018-12-20T11:20:46.842Z,51.20
2018-12-20T11:23:19.003Z,51.50
2018-12-20T11:25:51.051Z,52.21
2018-12-20T11:28:22.425Z,52.75
2018-12-20T11:30:53.880Z,52.69
2018-12-20T11:33:25.424Z,53.48
2018-12-20T11:35:57.382Z,53.39
2018-12-20T11:38:29.014Z,53.46
2018-12-20T11:41:00.532Z,54.18
2018-12-20T11:43:32.274Z,53.62
2018-12-20T11:46:03.994Z,54.14
2018-12-20T11:48:36.077Z,55.32
2018-12-20T11:51:07.923Z,55.75
2018-12-20T11:53:39.357Z,55.45
2018-12-20T11:56:13.830Z,55.45
2018-12-20T11:58:45.361Z,55.62
2018-12-20T12:01:17.222Z,56.09
2018-12-20T12:03:57.196Z,55.92
2018-12-20T12:06:22.895Z,56.42
2018-12-20T12:08:54.545Z,56.24
2018-12-20T12:11:26.286Z,56.09
2018-12-20T12:13:58.447Z,56.43
2018-12-20T12:16:30.274Z,57.06
2018-12-20T12:19:02.015Z,56.86
2018-12-20T12:21:33.929Z,57.57
2018-12-20T12:24:05.611Z,57.51
2018-12-20T12:26:38.369Z,57.48
2018-12-20T12:29:11.371Z,57.79
2018-12-20T12:31:44.458Z,57.59
2018-12-20T12:34:16.025Z,58.45
2018-12-20T12:36:48.172Z,58.41
2018-12-20T12:39:19.849Z,58.35
2018-12-20T12:41:51.682Z,58.40
2018-12-20T12:44:23.473Z,58.53
2018-12-20T12:46:55.456Z,58.94
2018-12-20T12:49:26.927Z,58.72
2018-12-20T12:51:58.656Z,58.66
2018-12-20T12:54:30.170Z,58.92
2018-12-20T12:57:02.722Z,58.94
2018-12-20T12:59:34.463Z,59.25
2018-12-20T13:02:06.545Z,58.78
2018-12-20T13:04:38.611Z,59.34
2018-12-20T13:07:10.980Z,59.44
2018-12-20T13:09:42.447Z,59.27
2018-12-20T13:12:14.050Z,59.66
2018-12-20T13:14:47.252Z,59.34
2018-12-20T13:17:19.327Z,60.03
2018-12-20T13:19:51.198Z,59.64
2018-12-20T13:22:23.380Z,59.69
2018-12-20T13:24:56.207Z,59.84
2018-12-20T13:27:28.867Z,61.08
2018-12-20T13:30:00.405Z,60.86
2018-12-20T13:32:32.081Z,60.67
2018-12-20T13:35:03.681Z,60.31
2018-12-20T13:37:35.367Z,60.34
2018-12-20T13:40:07.703Z,60.44
2018-12-20T13:42:39.165Z,61.17
2018-12-20T13:45:10.731Z,60.71
2018-12-20T13:47:43.122Z,60.88
2018-12-20T13:50:14.895Z,60.48
2018-12-20T13:52:46.567Z,60.85
2018-12-20T13:55:18.366Z,61.10
2018-12-20T13:57:51.156Z,60.34
2018-12-20T14:00:22.779Z,60.55
2018-12-20T14:02:54.556Z,60.23
2018-12-20T14:05:26.821Z,60.40
2018-12-20T14:07:58.997Z,60.55
2018-12-20T14:10:30.677Z,60.22
2018-12-20T14:13:02.360Z,60.47
2018-12-20T14:15:33.712Z,60.59
2018-12-20T14:18:05.201Z,61.02
2018-12-20T14:20:37.178Z,60.99
2018-12-20T14:23:09.013Z,59.99
2018-12-20T14:25:40.671Z,60.42
2018-12-20T14:28:12.968Z,60.18
2018-12-20T14:30:45.027Z,60.68
2018-12-20T14:33:16.760Z,60.32
2018-12-20T14:35:48.721Z,60.77
2018-12-20T14:38:20.515Z,60.16
2018-12-20T14:40:52.644Z,59.87
2018-12-20T14:43:24.695Z,60.46
2018-12-20T14:45:56.172Z,60.14
2018-12-20T14:48:38.995Z,60.75
2018-12-20T14:51:06.336Z,60.27
2018-12-20T14:53:38.268Z,59.94
2018-12-20T14:56:09.670Z,62.09
2018-12-20T14:58:42.170Z,63.22
2018-12-20T15:01:13.821Z,63.46
2018-12-20T15:03:46.044Z,64.10
2018-12-20T15:06:17.857Z,63.83
2018-12-20T15:08:49.748Z,64.24
2018-12-20T15:11:21.274Z,64.02
2018-12-20T15:13:52.716Z,63.83
2018-12-20T15:16:24.070Z,64.27
2018-12-20T15:18:56.269Z,64.36
2018-12-20T15:21:28.641Z,64.85
2018-12-20T15:24:00.425Z,64.15
2018-12-20T15:26:32.567Z,64.45
2018-12-20T15:29:04.615Z,64.81
2018-12-20T15:31:36.735Z,65.41
2018-12-20T15:34:08.672Z,65.02
2018-12-20T15:36:40.925Z,65.15
2018-12-20T15:39:12.991Z,64.53
2018-12-20T15:41:44.948Z,65.08
2018-12-20T15:44:16.819Z,64.95
2018-12-20T15:46:48.355Z,64.85
2018-12-20T15:49:20.205Z,65.17
2018-12-20T15:51:51.935Z,64.62
2018-12-20T15:54:24.311Z,65.46
2018-12-20T15:56:55.885Z,64.90
2018-12-20T15:59:28.230Z,65.54
2018-12-20T16:01:59.664Z,65.60
2018-12-20T16:04:31.787Z,65.13
2018-12-20T16:07:03.855Z,65.00
2018-12-20T16:09:36.120Z,65.35
2018-12-20T16:12:07.811Z,65.07
2018-12-20T16:14:40.107Z,65.58
2018-12-20T16:17:11.758Z,65.38
2018-12-20T16:19:44.180Z,65.57
2018-12-20T16:22:15.929Z,65.51
2018-12-20T16:24:47.708Z,65.57
2018-12-20T16:27:19.379Z,66.12
2018-12-20T16:29:51.455Z,65.76
2018-12-20T16:32:22.997Z,65.84
2018-12-20T16:34:54.966Z,66.02
2018-12-20T16:37:26.777Z,66.47
2018-12-20T16:39:59.017Z,66.60
2018-12-20T16:42:30.909Z,66.29
2018-12-20T16:45:02.936Z,66.20
2018-12-20T16:47:35.582Z,64.96
2018-12-20T16:50:08.980Z,65.38
2018-12-20T16:52:41.231Z,65.92
2018-12-20T16:55:13.292Z,65.59
2018-12-20T16:57:45.218Z,66.47
2018-12-20T17:00:17.274Z,66.03
2018-12-20T17:02:48.799Z,66.55
2018-12-20T17:05:20.729Z,67.27
2018-12-20T17:07:52.543Z,67.00
2018-12-20T17:10:24.287Z,66.65
2018-12-20T17:12:56.013Z,66.21
2018-12-20T17:15:27.957Z,67.00
2018-12-20T17:17:59.410Z,67.06
2018-12-20T17:20:31.544Z,66.85
2018-12-20T17:23:03.171Z,67.38
2018-12-20T17:25:35.020Z,66.71
2018-12-20T17:28:07.134Z,66.79
2018-12-20T17:30:39.131Z,66.99
2018-12-20T17:33:10.366Z,67.50
2018-12-20T17:35:42.818Z,67.34
2018-12-20T17:38:14.249Z,67.72
2018-12-20T17:40:46.037Z,67.49
2018-12-20T17:43:17.924Z,67.28
2018-12-20T17:45:49.489Z,66.71
2018-12-20T17:48:28.984Z,67.86
2018-12-20T17:50:54.929Z,67.79
2018-12-20T17:53:27.085Z,67.66
2018-12-20T17:55:58.657Z,68.14
2018-12-20T17:58:30.219Z,67.60
2018-12-20T18:01:02.225Z,67.80
2018-12-20T18:03:34.798Z,67.53
2018-12-20T18:06:06.775Z,67.42
2018-12-20T18:08:38.613Z,68.33
2018-12-20T18:11:10.340Z,68.21
2018-12-20T18:13:42.161Z,67.61
2018-12-20T18:16:14.117Z,67.86
2018-12-20T18:18:45.925Z,68.10
2018-12-20T18:21:17.903Z,67.69
2018-12-20T18:23:49.579Z,67.75
2018-12-20T18:26:21.450Z,68.43
2018-12-20T18:28:53.055Z,68.57
2018-12-20T18:31:25.536Z,68.12
2018-12-20T18:33:58.323Z,68.17
2018-12-20T18:36:30.620Z,68.01
2018-12-20T18:39:03.047Z,67.95
2018-12-20T18:41:35.577Z,67.98
2018-12-20T18:44:08.661Z,67.62
2018-12-20T18:46:40.416Z,67.71
2018-12-20T18:49:12.786Z,68.12
2018-12-20T18:51:45.981Z,68.20
2018-12-20T18:54:17.622Z,68.01
2018-12-20T18:56:50.096Z,67.85
2018-12-20T18:59:22.316Z,67.31
2018-12-20T19:01:54.386Z,67.46
2018-12-20T19:04:26.120Z,67.12
2018-12-20T19:06:57.811Z,67.74
2018-12-20T19:09:29.781Z,67.39
2018-12-20T19:12:02.426Z,67.59
2018-12-20T19:14:34.491Z,67.41
2018-12-20T19:17:06.505Z,67.70
2018-12-20T19:19:38.890Z,68.09
2018-12-20T19:22:10.951Z,67.40
2018-12-20T19:24:42.777Z,67.09
2018-12-20T19:27:14.163Z,67.23
2018-12-20T19:29:45.869Z,66.91
2018-12-20T19:32:17.673Z,65.71
2018-12-20T19:34:49.326Z,66.25
2018-12-20T19:37:20.929Z,66.42
2018-12-20T19:39:58.770Z,65.99
2018-12-20T19:42:30.429Z,66.47
2018-12-20T19:45:01.940Z,66.04
2018-12-20T19:47:34.042Z,65.74
2018-12-20T19:50:06.009Z,65.30
2018-12-20T19:52:38.016Z,65.59
2018-12-20T19:55:09.995Z,65.64
2018-12-20T19:57:42.006Z,65.25
2018-12-20T20:00:16.355Z,65.94
2018-12-20T20:02:48.630Z,66.12
2018-12-20T20:05:20.760Z,65.62
2018-12-20T20:07:52.461Z,66.21
2018-12-20T20:10:24.607Z,65.62
2018-12-20T20:12:56.772Z,66.61
2018-12-20T20:15:28.801Z,65.80
2018-12-20T20:18:00.716Z,66.53
2018-12-20T20:20:32.634Z,66.68
2018-12-20T20:23:04.319Z,66.62
2018-12-20T20:25:36.474Z,66.84
2018-12-20T20:28:08.240Z,66.48
2018-12-20T20:30:40.076Z,67.11
2018-12-20T20:33:12.157Z,66.67
2018-12-20T20:35:44.437Z,65.99
2018-12-20T20:38:15.913Z,65.65
2018-12-20T20:40:47.975Z,65.95
2018-12-20T20:43:19.712Z,66.50
2018-12-20T20:45:51.822Z,66.50
2018-12-20T20:48:23.907Z,66.39
2018-12-20T20:50:56.297Z,66.75
2018-12-20T20:53:27.982Z,66.97
2018-12-20T20:55:59.962Z,67.23
2018-12-20T20:58:32.596Z,67.50
2018-12-20T21:01:04.537Z,67.42
2018-12-20T21:03:36.858Z,67.11
2018-12-20T21:06:08.618Z,67.61
2018-12-20T21:08:40.470Z,67.20
2018-12-20T21:11:12.264Z,67.63
2018-12-20T21:13:44.214Z,67.14
2018-12-20T21:16:16.071Z,67.33
2018-12-20T21:18:47.765Z,67.56
2018-12-20T21:21:19.815Z,67.19
2018-12-20T21:23:51.841Z,66.95
2018-12-20T21:26:23.892Z,67.28
2018-12-20T21:28:55.660Z,66.96
2018-12-20T21:31:27.344Z,66.94
2018-12-20T21:33:59.496Z,67.62
2018-12-20T21:36:31.616Z,66.97
2018-12-20T21:39:04.817Z,66.56
2018-12-20T21:41:36.961Z,66.13
2018-12-20T21:44:08.582Z,66.99
2018-12-20T21:46:40.744Z,66.75
2018-12-20T21:49:13.043Z,66.51
2018-12-20T21:51:44.748Z,66.64
2018-12-20T21:54:16.304Z,66.68
2018-12-20T21:56:48.283Z,66.82
2018-12-20T21:59:21.110Z,66.75
2018-12-20T22:01:53.217Z,66.62
2018-12-20T22:04:25.766Z,66.29
2018-12-20T22:06:57.298Z,66.40
2018-12-20T22:09:28.913Z,66.57
2018-12-20T22:12:00.916Z,66.47
2018-12-20T22:14:32.426Z,66.58
2018-12-20T22:17:04.370Z,66.94
2018-12-20T22:19:36.115Z,67.24
2018-12-20T22:22:07.778Z,66.76
2018-12-20T22:24:39.316Z,67.63
2018-12-20T22:27:11.349Z,67.93
2018-12-20T22:29:43.766Z,67.06
2018-12-20T22:32:15.435Z,67.74
2018-12-20T22:34:47.533Z,67.37
2018-12-20T22:37:19.454Z,68.12
2018-12-20T22:39:51.077Z,67.79
2018-12-20T22:42:22.937Z,67.96
2018-12-20T22:44:54.833Z,67.59
2018-12-20T22:47:26.546Z,68.46
2018-12-20T22:49:58.113Z,68.02
2018-12-20T22:52:29.759Z,67.98
2018-12-20T22:55:01.567Z,68.02
2018-12-20T22:57:33.474Z,68.02
2018-12-20T23:00:06.455Z,67.96
2018-12-20T23:02:38.703Z,68.17
2018-12-20T23:05:10.886Z,68.02
2018-12-20T23:07:42.991Z,68.67
2018-12-20T23:10:16.008Z,68.62
2018-12-20T23:12:47.999Z,68.59
2018-12-20T23:15:19.522Z,68.70
2018-12-20T23:17:51.245Z,68.27
2018-12-20T23:20:22.835Z,68.69
2018-12-20T23:22:54.591Z,69.31
2018-12-20T23:25:26.431Z,69.14
2018-12-20T23:27:59.167Z,69.11
2018-12-20T23:30:30.895Z,69.04
2018-12-20T23:33:02.640Z,68.89
2018-12-20T23:35:34.822Z,69.48
2018-12-20T23:38:06.661Z,69.96
2018-12-20T23:40:38.212Z,69.76
2018-12-20T23:43:10.063Z,68.94
2018-12-20T23:45:41.966Z,68.73
2018-12-20T23:48:13.692Z,69.18
2018-12-20T23:50:45.501Z,69.38
2018-12-20T23:53:17.218Z,69.89
2018-12-20T23:55:48.683Z,69.73
2018-12-20T23:58:20.758Z,69.50
